sensor_id;sensor_type;location;lat;lon;timestamp;pressure;altitude;pressure_sealevel;temperature;humidity
53246;BME280;39569;51.090;-1.786;2024-01-16T00:00:30;100692.44;;;7.84;40.23
53246;BME280;39569;51.090;-1.786;2024-01-16T00:02:57;100700.41;;;7.84;39.95
53246;BME280;39569;51.090;-1.786;2024-01-16T00:05:25;100695.00;;;7.93;40.54
53246;BME280;39569;51.090;-1.786;2024-01-16T00:07:52;100684.06;;;7.71;41.16
53246;BME280;39569;51.090;-1.786;2024-01-16T00:10:19;100682.94;;;7.56;41.21
53246;BME280;39569;51.090;-1.786;2024-01-16T00:12:46;100681.59;;;7.52;40.19
53246;BME280;39569;51.090;-1.786;2024-01-16T00:15:12;100670.25;;;7.42;40.31
53246;BME280;39569;51.090;-1.786;2024-01-16T00:17:39;100663.06;;;7.60;40.63
53246;BME280;39569;51.090;-1.786;2024-01-16T00:20:07;100660.59;;;7.66;40.54
53246;BME280;39569;51.090;-1.786;2024-01-16T00:22:35;100659.28;;;7.70;40.11
53246;BME280;39569;51.090;-1.786;2024-01-16T00:25:02;100659.97;;;7.47;40.59
53246;BME280;39569;51.090;-1.786;2024-01-16T00:27:28;100660.81;;;7.47;40.50
53246;BME280;39569;51.090;-1.786;2024-01-16T00:29:55;100663.56;;;7.38;41.08
53246;BME280;39569;51.090;-1.786;2024-01-16T00:32:22;100657.00;;;7.50;40.83
53246;BME280;39569;51.090;-1.786;2024-01-16T00:34:48;100655.50;;;7.47;40.87
53246;BME280;39569;51.090;-1.786;2024-01-16T00:37:16;100662.28;;;7.42;40.75
53246;BME280;39569;51.090;-1.786;2024-01-16T00:39:44;100657.56;;;7.61;40.25
53246;BME280;39569;51.090;-1.786;2024-01-16T00:42:11;100664.25;;;7.40;40.29
53246;BME280;39569;51.090;-1.786;2024-01-16T00:44:37;100659.78;;;7.40;40.90
53246;BME280;39569;51.090;-1.786;2024-01-16T00:47:04;100656.91;;;7.34;40.79
53246;BME280;39569;51.090;-1.786;2024-01-16T00:49:31;100661.13;;;7.44;41.09
53246;BME280;39569;51.090;-1.786;2024-01-16T00:51:57;100657.25;;;7.39;40.89
53246;BME280;39569;51.090;-1.786;2024-01-16T00:54:24;100664.97;;;7.24;40.79
53246;BME280;39569;51.090;-1.786;2024-01-16T00:56:52;100664.09;;;7.67;40.23
53246;BME280;39569;51.090;-1.786;2024-01-16T00:59:24;100669.22;;;7.35;41.21
53246;BME280;39569;51.090;-1.786;2024-01-16T01:01:51;100663.16;;;7.25;40.95
53246;BME280;39569;51.090;-1.786;2024-01-16T01:04:18;100666.13;;;7.22;41.11
53246;BME280;39569;51.090;-1.786;2024-01-16T01:06:45;100670.28;;;7.24;40.89
53246;BME280;39569;51.090;-1.786;2024-01-16T01:09:11;100656.75;;;7.35;41.34
53246;BME280;39569;51.090;-1.786;2024-01-16T01:11:38;100654.75;;;7.37;41.10
53246;BME280;39569;51.090;-1.786;2024-01-16T01:14:06;100654.50;;;7.48;41.04
53246;BME280;39569;51.090;-1.786;2024-01-16T01:16:33;100656.69;;;7.27;41.42
53246;BME280;39569;51.090;-1.786;2024-01-16T01:19:00;100657.66;;;7.26;40.87
53246;BME280;39569;51.090;-1.786;2024-01-16T01:21:27;100664.19;;;7.32;40.42
53246;BME280;39569;51.090;-1.786;2024-01-16T01:23:53;100657.91;;;7.15;41.09
53246;BME280;39569;51.090;-1.786;2024-01-16T01:26:20;100655.59;;;7.12;41.05
53246;BME280;39569;51.090;-1.786;2024-01-16T01:28:47;100657.25;;;7.13;41.11
53246;BME280;39569;51.090;-1.786;2024-01-16T01:31:15;100648.72;;;7.53;40.41
53246;BME280;39569;51.090;-1.786;2024-01-16T01:33:42;100650.44;;;7.36;41.76
53246;BME280;39569;51.090;-1.786;2024-01-16T01:36:08;100646.53;;;7.23;41.61
53246;BME280;39569;51.090;-1.786;2024-01-16T01:38:35;100644.22;;;7.28;41.85
53246;BME280;39569;51.090;-1.786;2024-01-16T01:41:02;100647.78;;;7.36;41.00
53246;BME280;39569;51.090;-1.786;2024-01-16T01:43:29;100646.34;;;7.42;41.15
53246;BME280;39569;51.090;-1.786;2024-01-16T01:46:16;100643.84;;;7.74;40.49
53246;BME280;39569;51.090;-1.786;2024-01-16T01:48:47;100642.16;;;7.39;41.29
53246;BME280;39569;51.090;-1.786;2024-01-16T01:51:17;100638.94;;;7.53;41.59
53246;BME280;39569;51.090;-1.786;2024-01-16T01:53:45;100642.47;;;7.36;41.38
53246;BME280;39569;51.090;-1.786;2024-01-16T01:56:15;100639.75;;;7.54;41.07
53246;BME280;39569;51.090;-1.786;2024-01-16T01:58:44;100640.41;;;7.48;41.14
53246;BME280;39569;51.090;-1.786;2024-01-16T02:01:13;100633.72;;;7.69;41.36
53246;BME280;39569;51.090;-1.786;2024-01-16T02:03:43;100640.38;;;7.73;41.18
53246;BME280;39569;51.090;-1.786;2024-01-16T02:06:10;100640.28;;;7.32;41.88
53246;BME280;39569;51.090;-1.786;2024-01-16T02:08:37;100632.28;;;7.24;41.06
53246;BME280;39569;51.090;-1.786;2024-01-16T02:11:05;100631.06;;;7.18;40.90
53246;BME280;39569;51.090;-1.786;2024-01-16T02:13:32;100632.38;;;7.14;41.55
53246;BME280;39569;51.090;-1.786;2024-01-16T02:15:59;100629.72;;;6.96;41.66
53246;BME280;39569;51.090;-1.786;2024-01-16T02:18:26;100643.22;;;7.03;40.89
53246;BME280;39569;51.090;-1.786;2024-01-16T02:20:56;100646.88;;;7.28;41.41
53246;BME280;39569;51.090;-1.786;2024-01-16T02:23:27;100641.47;;;7.12;41.10
53246;BME280;39569;51.090;-1.786;2024-01-16T02:25:54;100642.63;;;6.91;41.31
53246;BME280;39569;51.090;-1.786;2024-01-16T02:28:21;100629.97;;;7.03;41.08
53246;BME280;39569;51.090;-1.786;2024-01-16T02:30:48;100631.94;;;7.01;41.46
53246;BME280;39569;51.090;-1.786;2024-01-16T02:33:15;100632.09;;;7.00;41.97
53246;BME280;39569;51.090;-1.786;2024-01-16T02:35:41;100649.94;;;7.15;41.76
53246;BME280;39569;51.090;-1.786;2024-01-16T02:38:08;100640.25;;;7.06;41.90
53246;BME280;39569;51.090;-1.786;2024-01-16T02:40:36;100635.50;;;7.35;42.06
53246;BME280;39569;51.090;-1.786;2024-01-16T02:43:03;100639.94;;;7.09;41.47
53246;BME280;39569;51.090;-1.786;2024-01-16T02:45:30;100629.72;;;7.14;41.58
53246;BME280;39569;51.090;-1.786;2024-01-16T02:47:56;100634.97;;;7.32;41.97
53246;BME280;39569;51.090;-1.786;2024-01-16T02:50:23;100613.00;;;7.22;41.91
53246;BME280;39569;51.090;-1.786;2024-01-16T02:52:50;100621.16;;;7.28;41.56
53246;BME280;39569;51.090;-1.786;2024-01-16T02:55:16;100609.31;;;7.40;41.35
53246;BME280;39569;51.090;-1.786;2024-01-16T02:57:44;100613.06;;;7.63;41.72
53246;BME280;39569;51.090;-1.786;2024-01-16T03:00:12;100610.38;;;7.55;41.36
53246;BME280;39569;51.090;-1.786;2024-01-16T03:02:39;100611.81;;;7.50;41.53
53246;BME280;39569;51.090;-1.786;2024-01-16T03:05:06;100610.69;;;7.52;40.85
53246;BME280;39569;51.090;-1.786;2024-01-16T03:07:34;100612.47;;;7.44;41.56
53246;BME280;39569;51.090;-1.786;2024-01-16T03:10:01;100607.69;;;7.47;41.17
53246;BME280;39569;51.090;-1.786;2024-01-16T03:12:27;100603.25;;;7.30;40.88
53246;BME280;39569;51.090;-1.786;2024-01-16T03:14:55;100599.44;;;7.58;41.38
53246;BME280;39569;51.090;-1.786;2024-01-16T03:17:22;100592.94;;;7.27;41.07
53246;BME280;39569;51.090;-1.786;2024-01-16T03:19:49;100588.59;;;7.18;40.86
53246;BME280;39569;51.090;-1.786;2024-01-16T03:22:16;100589.09;;;7.22;41.59
53246;BME280;39569;51.090;-1.786;2024-01-16T03:24:43;100584.97;;;7.27;41.28
53246;BME280;39569;51.090;-1.786;2024-01-16T03:27:10;100590.44;;;7.26;41.54
53246;BME280;39569;51.090;-1.786;2024-01-16T03:29:37;100589.50;;;7.09;41.17
53246;BME280;39569;51.090;-1.786;2024-01-16T03:32:05;100581.31;;;7.28;41.10
53246;BME280;39569;51.090;-1.786;2024-01-16T03:34:32;100579.50;;;7.03;41.67
53246;BME280;39569;51.090;-1.786;2024-01-16T03:36:58;100574.81;;;6.97;41.25
53246;BME280;39569;51.090;-1.786;2024-01-16T03:39:25;100582.88;;;6.87;41.34
53246;BME280;39569;51.090;-1.786;2024-01-16T03:41:52;100575.13;;;6.94;42.19
53246;BME280;39569;51.090;-1.786;2024-01-16T03:44:19;100575.13;;;6.94;41.42
53246;BME280;39569;51.090;-1.786;2024-01-16T03:46:45;100566.69;;;6.98;41.96
53246;BME280;39569;51.090;-1.786;2024-01-16T03:49:13;100572.00;;;7.24;41.60
53246;BME280;39569;51.090;-1.786;2024-01-16T03:51:40;100572.47;;;6.94;41.90
53246;BME280;39569;51.090;-1.786;2024-01-16T03:54:11;100559.03;;;6.95;41.42
53246;BME280;39569;51.090;-1.786;2024-01-16T03:56:38;100561.47;;;6.89;41.96
53246;BME280;39569;51.090;-1.786;2024-01-16T03:59:05;100558.28;;;6.85;41.47
53246;BME280;39569;51.090;-1.786;2024-01-16T04:01:32;100559.59;;;6.81;41.51
53246;BME280;39569;51.090;-1.786;2024-01-16T04:03:58;100553.06;;;6.93;42.12
53246;BME280;39569;51.090;-1.786;2024-01-16T04:06:27;100550.59;;;7.26;41.85
53246;BME280;39569;51.090;-1.786;2024-01-16T04:08:54;100549.56;;;6.93;41.69
53246;BME280;39569;51.090;-1.786;2024-01-16T04:11:21;100549.50;;;6.85;41.59
53246;BME280;39569;51.090;-1.786;2024-01-16T04:13:47;100550.41;;;6.76;41.72
53246;BME280;39569;51.090;-1.786;2024-01-16T04:16:15;100545.44;;;6.73;41.93
53246;BME280;39569;51.090;-1.786;2024-01-16T04:18:43;100550.59;;;6.74;42.12
53246;BME280;39569;51.090;-1.786;2024-01-16T04:21:10;100537.47;;;6.73;42.24
53246;BME280;39569;51.090;-1.786;2024-01-16T04:23:38;100535.66;;;6.99;42.22
53246;BME280;39569;51.090;-1.786;2024-01-16T04:26:04;100540.97;;;6.73;42.45
53246;BME280;39569;51.090;-1.786;2024-01-16T04:28:30;100533.44;;;6.86;42.09
53246;BME280;39569;51.090;-1.786;2024-01-16T04:30:57;100527.44;;;6.84;41.47
53246;BME280;39569;51.090;-1.786;2024-01-16T04:33:24;100527.38;;;6.76;42.47
53246;BME280;39569;51.090;-1.786;2024-01-16T04:35:50;100517.28;;;6.80;41.34
53246;BME280;39569;51.090;-1.786;2024-01-16T04:38:17;100518.91;;;6.55;41.43
53246;BME280;39569;51.090;-1.786;2024-01-16T04:40:45;100513.19;;;6.85;42.45
53246;BME280;39569;51.090;-1.786;2024-01-16T04:43:12;100503.75;;;6.65;41.64
53246;BME280;39569;51.090;-1.786;2024-01-16T04:45:38;100508.41;;;6.46;42.16
53246;BME280;39569;51.090;-1.786;2024-01-16T04:48:05;100514.97;;;6.59;42.42
53246;BME280;39569;51.090;-1.786;2024-01-16T04:50:33;100512.16;;;6.61;42.25
53246;BME280;39569;51.090;-1.786;2024-01-16T04:53:00;100506.25;;;6.67;42.29
53246;BME280;39569;51.090;-1.786;2024-01-16T04:55:27;100505.81;;;6.54;42.57
53246;BME280;39569;51.090;-1.786;2024-01-16T04:57:56;100513.78;;;6.79;42.62
53246;BME280;39569;51.090;-1.786;2024-01-16T05:00:25;100506.84;;;6.61;42.02
53246;BME280;39569;51.090;-1.786;2024-01-16T05:02:52;100506.91;;;6.69;42.34
53246;BME280;39569;51.090;-1.786;2024-01-16T05:05:19;100490.22;;;6.51;42.19
53246;BME280;39569;51.090;-1.786;2024-01-16T05:07:46;100496.72;;;6.39;41.77
53246;BME280;39569;51.090;-1.786;2024-01-16T05:10:12;100501.34;;;6.54;42.17
53246;BME280;39569;51.090;-1.786;2024-01-16T05:12:39;100493.78;;;6.42;42.64
53246;BME280;39569;51.090;-1.786;2024-01-16T05:15:08;100499.28;;;6.66;42.83
53246;BME280;39569;51.090;-1.786;2024-01-16T05:17:36;100503.41;;;6.43;42.37
53246;BME280;39569;51.090;-1.786;2024-01-16T05:20:04;100495.00;;;6.47;42.49
53246;BME280;39569;51.090;-1.786;2024-01-16T05:22:31;100495.22;;;6.36;42.24
53246;BME280;39569;51.090;-1.786;2024-01-16T05:24:58;100500.47;;;6.46;42.03
53246;BME280;39569;51.090;-1.786;2024-01-16T05:27:25;100495.75;;;6.40;41.79
53246;BME280;39569;51.090;-1.786;2024-01-16T05:29:51;100490.44;;;6.22;42.26
53246;BME280;39569;51.090;-1.786;2024-01-16T05:32:19;100492.19;;;6.49;42.12
53246;BME280;39569;51.090;-1.786;2024-01-16T05:34:45;100486.47;;;6.18;42.06
53246;BME280;39569;51.090;-1.786;2024-01-16T05:37:12;100489.94;;;6.19;41.96
53246;BME280;39569;51.090;-1.786;2024-01-16T05:39:39;100490.31;;;6.24;42.17
53246;BME280;39569;51.090;-1.786;2024-01-16T05:42:06;100486.75;;;6.33;41.50
53246;BME280;39569;51.090;-1.786;2024-01-16T05:44:32;100487.28;;;6.01;42.12
53246;BME280;39569;51.090;-1.786;2024-01-16T05:46:59;100480.78;;;5.95;42.21
53246;BME280;39569;51.090;-1.786;2024-01-16T05:49:27;100483.06;;;6.26;42.17
53246;BME280;39569;51.090;-1.786;2024-01-16T05:51:54;100474.25;;;5.90;42.36
53246;BME280;39569;51.090;-1.786;2024-01-16T05:54:21;100466.22;;;6.17;42.33
53246;BME280;39569;51.090;-1.786;2024-01-16T05:56:47;100459.94;;;6.01;42.07
53246;BME280;39569;51.090;-1.786;2024-01-16T05:59:15;100462.50;;;5.92;42.28
53246;BME280;39569;51.090;-1.786;2024-01-16T06:01:42;100455.50;;;6.01;41.99
53246;BME280;39569;51.090;-1.786;2024-01-16T06:04:09;100451.91;;;5.92;41.83
53246;BME280;39569;51.090;-1.786;2024-01-16T06:06:37;100448.19;;;6.21;41.75
53246;BME280;39569;51.090;-1.786;2024-01-16T06:09:04;100450.28;;;5.82;41.87
53246;BME280;39569;51.090;-1.786;2024-01-16T06:11:31;100452.47;;;5.96;42.22
53246;BME280;39569;51.090;-1.786;2024-01-16T06:13:58;100448.50;;;6.00;42.08
53246;BME280;39569;51.090;-1.786;2024-01-16T06:16:26;100442.59;;;6.06;42.29
53246;BME280;39569;51.090;-1.786;2024-01-16T06:18:52;100447.59;;;5.91;42.05
53246;BME280;39569;51.090;-1.786;2024-01-16T06:21:19;100447.25;;;5.86;42.15
53246;BME280;39569;51.090;-1.786;2024-01-16T06:23:47;100445.19;;;6.16;42.22
53246;BME280;39569;51.090;-1.786;2024-01-16T06:26:14;100448.28;;;5.93;42.32
53246;BME280;39569;51.090;-1.786;2024-01-16T06:28:41;100452.00;;;6.01;42.36
53246;BME280;39569;51.090;-1.786;2024-01-16T06:31:08;100435.78;;;5.86;42.31
53246;BME280;39569;51.090;-1.786;2024-01-16T06:33:35;100434.56;;;5.98;42.40
53246;BME280;39569;51.090;-1.786;2024-01-16T06:36:03;100434.13;;;6.03;42.30
53246;BME280;39569;51.090;-1.786;2024-01-16T06:38:30;100435.53;;;5.79;42.92
53246;BME280;39569;51.090;-1.786;2024-01-16T06:40:58;100430.72;;;6.10;42.71
53246;BME280;39569;51.090;-1.786;2024-01-16T06:43:26;100435.47;;;5.89;42.49
53246;BME280;39569;51.090;-1.786;2024-01-16T06:45:52;100431.91;;;5.98;42.30
53246;BME280;39569;51.090;-1.786;2024-01-16T06:48:19;100433.50;;;5.91;42.18
53246;BME280;39569;51.090;-1.786;2024-01-16T06:50:46;100433.97;;;6.04;42.04
53246;BME280;39569;51.090;-1.786;2024-01-16T06:53:13;100430.63;;;6.02;42.44
53246;BME280;39569;51.090;-1.786;2024-01-16T06:55:40;100431.31;;;6.04;42.47
53246;BME280;39569;51.090;-1.786;2024-01-16T06:58:08;100440.06;;;6.40;42.59
53246;BME280;39569;51.090;-1.786;2024-01-16T07:00:35;100439.56;;;6.19;42.30
53246;BME280;39569;51.090;-1.786;2024-01-16T07:03:02;100437.97;;;6.26;42.83
53246;BME280;39569;51.090;-1.786;2024-01-16T07:05:29;100447.44;;;6.28;42.72
53246;BME280;39569;51.090;-1.786;2024-01-16T07:07:56;100441.66;;;6.33;42.49
53246;BME280;39569;51.090;-1.786;2024-01-16T07:10:23;100447.94;;;6.32;42.28
53246;BME280;39569;51.090;-1.786;2024-01-16T07:12:50;100437.41;;;6.22;42.25
53246;BME280;39569;51.090;-1.786;2024-01-16T07:15:18;100432.31;;;6.46;42.38
53246;BME280;39569;51.090;-1.786;2024-01-16T07:17:45;100425.84;;;6.06;42.32
53246;BME280;39569;51.090;-1.786;2024-01-16T07:20:12;100411.63;;;6.07;42.06
53246;BME280;39569;51.090;-1.786;2024-01-16T07:22:39;100419.78;;;6.13;42.55
53246;BME280;39569;51.090;-1.786;2024-01-16T07:25:06;100416.31;;;6.13;42.39
53246;BME280;39569;51.090;-1.786;2024-01-16T07:27:33;100408.13;;;6.06;42.31
53246;BME280;39569;51.090;-1.786;2024-01-16T07:30:00;100406.03;;;5.92;42.46
53246;BME280;39569;51.090;-1.786;2024-01-16T07:32:28;100402.06;;;6.14;42.49
53246;BME280;39569;51.090;-1.786;2024-01-16T07:34:55;100403.00;;;5.87;42.26
53246;BME280;39569;51.090;-1.786;2024-01-16T07:37:22;100408.47;;;5.85;42.41
53246;BME280;39569;51.090;-1.786;2024-01-16T07:39:48;100397.84;;;5.85;42.24
53246;BME280;39569;51.090;-1.786;2024-01-16T07:42:15;100402.31;;;5.85;42.35
53246;BME280;39569;51.090;-1.786;2024-01-16T07:44:42;100402.03;;;5.88;42.41
53246;BME280;39569;51.090;-1.786;2024-01-16T07:47:09;100399.00;;;5.83;42.57
53246;BME280;39569;51.090;-1.786;2024-01-16T07:49:37;100396.69;;;6.06;42.25
53246;BME280;39569;51.090;-1.786;2024-01-16T07:52:04;100396.78;;;5.61;42.60
53246;BME280;39569;51.090;-1.786;2024-01-16T07:54:31;100396.69;;;5.70;42.49
53246;BME280;39569;51.090;-1.786;2024-01-16T07:56:58;100397.38;;;5.72;42.32
53246;BME280;39569;51.090;-1.786;2024-01-16T07:59:24;100394.03;;;5.70;42.33
53246;BME280;39569;51.090;-1.786;2024-01-16T08:01:51;100395.63;;;5.63;42.62
53246;BME280;39569;51.090;-1.786;2024-01-16T08:04:19;100387.84;;;5.62;42.98
53246;BME280;39569;51.090;-1.786;2024-01-16T08:06:48;100391.03;;;6.01;42.43
53246;BME280;39569;51.090;-1.786;2024-01-16T08:09:14;100381.78;;;5.69;42.34
53246;BME280;39569;51.090;-1.786;2024-01-16T08:11:41;100390.59;;;5.87;42.62
53246;BME280;39569;51.090;-1.786;2024-01-16T08:14:08;100388.63;;;5.89;42.76
53246;BME280;39569;51.090;-1.786;2024-01-16T08:16:34;100391.78;;;5.58;43.10
53246;BME280;39569;51.090;-1.786;2024-01-16T08:19:01;100392.78;;;5.57;43.33
53246;BME280;39569;51.090;-1.786;2024-01-16T08:21:28;100387.63;;;5.73;42.81
53246;BME280;39569;51.090;-1.786;2024-01-16T08:23:56;100391.50;;;5.96;42.67
53246;BME280;39569;51.090;-1.786;2024-01-16T08:26:24;100393.00;;;5.81;42.60
53246;BME280;39569;51.090;-1.786;2024-01-16T08:28:51;100393.72;;;5.83;42.63
53246;BME280;39569;51.090;-1.786;2024-01-16T08:31:18;100399.25;;;5.80;42.68
53246;BME280;39569;51.090;-1.786;2024-01-16T08:33:45;100393.56;;;5.84;42.43
53246;BME280;39569;51.090;-1.786;2024-01-16T08:36:12;100391.59;;;5.86;42.63
53246;BME280;39569;51.090;-1.786;2024-01-16T08:38:39;100383.00;;;5.92;42.66
53246;BME280;39569;51.090;-1.786;2024-01-16T08:41:07;100383.34;;;6.15;42.94
53246;BME280;39569;51.090;-1.786;2024-01-16T08:43:34;100382.16;;;6.10;42.95
53246;BME280;39569;51.090;-1.786;2024-01-16T08:46:01;100378.56;;;6.19;43.08
53246;BME280;39569;51.090;-1.786;2024-01-16T08:48:28;100382.47;;;6.07;43.18
53246;BME280;39569;51.090;-1.786;2024-01-16T08:50:54;100372.59;;;6.17;42.97
53246;BME280;39569;51.090;-1.786;2024-01-16T08:53:21;100379.84;;;6.32;42.76
53246;BME280;39569;51.090;-1.786;2024-01-16T08:55:48;100370.88;;;6.33;43.26
53246;BME280;39569;51.090;-1.786;2024-01-16T08:58:16;100372.03;;;6.56;43.16
53246;BME280;39569;51.090;-1.786;2024-01-16T09:00:43;100366.81;;;6.47;42.90
53246;BME280;39569;51.090;-1.786;2024-01-16T09:03:11;100369.28;;;6.74;43.07
53246;BME280;39569;51.090;-1.786;2024-01-16T09:05:38;100372.38;;;6.61;43.47
53246;BME280;39569;51.090;-1.786;2024-01-16T09:08:05;100366.41;;;6.59;43.17
53246;BME280;39569;51.090;-1.786;2024-01-16T09:10:32;100367.19;;;6.52;43.82
53246;BME280;39569;51.090;-1.786;2024-01-16T09:12:58;100370.19;;;6.90;42.90
53246;BME280;39569;51.090;-1.786;2024-01-16T09:15:27;100364.78;;;7.08;43.39
53246;BME280;39569;51.090;-1.786;2024-01-16T09:17:53;100370.44;;;7.05;43.18
53246;BME280;39569;51.090;-1.786;2024-01-16T09:20:20;100363.34;;;7.30;43.11
53246;BME280;39569;51.090;-1.786;2024-01-16T09:22:47;100364.72;;;7.42;42.51
53246;BME280;39569;51.090;-1.786;2024-01-16T09:25:14;100366.22;;;7.44;43.08
53246;BME280;39569;51.090;-1.786;2024-01-16T09:27:41;100361.06;;;7.43;43.44
53246;BME280;39569;51.090;-1.786;2024-01-16T09:30:08;100363.94;;;7.65;42.57
53246;BME280;39569;51.090;-1.786;2024-01-16T09:32:37;100359.47;;;7.90;43.78
53246;BME280;39569;51.090;-1.786;2024-01-16T09:35:04;100350.66;;;7.97;42.67
53246;BME280;39569;51.090;-1.786;2024-01-16T09:37:33;100344.19;;;7.92;42.65
53246;BME280;39569;51.090;-1.786;2024-01-16T09:40:00;100347.31;;;8.04;42.64
53246;BME280;39569;51.090;-1.786;2024-01-16T09:42:27;100340.81;;;8.22;43.15
53246;BME280;39569;51.090;-1.786;2024-01-16T09:44:55;100340.84;;;8.38;42.01
53246;BME280;39569;51.090;-1.786;2024-01-16T09:47:22;100339.81;;;8.39;42.35
53246;BME280;39569;51.090;-1.786;2024-01-16T09:49:52;100329.59;;;8.67;42.39
53246;BME280;39569;51.090;-1.786;2024-01-16T09:52:20;100332.16;;;8.44;42.57
53246;BME280;39569;51.090;-1.786;2024-01-16T09:54:46;100328.72;;;8.74;42.34
53246;BME280;39569;51.090;-1.786;2024-01-16T09:57:14;100325.59;;;9.02;40.80
53246;BME280;39569;51.090;-1.786;2024-01-16T09:59:41;100323.94;;;9.01;40.61
53246;BME280;39569;51.090;-1.786;2024-01-16T10:02:10;100322.81;;;8.56;41.18
53246;BME280;39569;51.090;-1.786;2024-01-16T10:04:38;100340.31;;;8.89;40.70
53246;BME280;39569;51.090;-1.786;2024-01-16T10:07:08;100335.81;;;9.21;40.89
53246;BME280;39569;51.090;-1.786;2024-01-16T10:09:38;100310.38;;;8.79;42.59
53246;BME280;39569;51.090;-1.786;2024-01-16T10:12:05;100325.88;;;9.15;41.73
53246;BME280;39569;51.090;-1.786;2024-01-16T10:14:33;100320.06;;;9.42;41.35
53246;BME280;39569;51.090;-1.786;2024-01-16T10:17:00;100323.19;;;9.45;41.71
53246;BME280;39569;51.090;-1.786;2024-01-16T10:19:31;100319.03;;;9.65;40.66
53246;BME280;39569;51.090;-1.786;2024-01-16T10:22:01;100318.19;;;10.10;39.82
53246;BME280;39569;51.090;-1.786;2024-01-16T10:24:30;100321.50;;;9.89;40.02
53246;BME280;39569;51.090;-1.786;2024-01-16T10:26:58;100319.50;;;9.91;39.43
53246;BME280;39569;51.090;-1.786;2024-01-16T10:29:28;100324.69;;;10.08;39.55
53246;BME280;39569;51.090;-1.786;2024-01-16T10:31:54;100314.97;;;10.15;39.28
53246;BME280;39569;51.090;-1.786;2024-01-16T10:34:22;100317.50;;;10.60;38.59
53246;BME280;39569;51.090;-1.786;2024-01-16T10:36:50;100323.91;;;10.95;38.48
53246;BME280;39569;51.090;-1.786;2024-01-16T10:39:18;100311.88;;;11.20;38.25
53246;BME280;39569;51.090;-1.786;2024-01-16T10:41:55;100305.03;;;12.50;35.67
53246;BME280;39569;51.090;-1.786;2024-01-16T10:44:22;100292.22;;;15.15;32.43
53246;BME280;39569;51.090;-1.786;2024-01-16T10:46:49;100288.19;;;17.15;30.06
53246;BME280;39569;51.090;-1.786;2024-01-16T10:49:16;100280.03;;;18.27;27.83
53246;BME280;39569;51.090;-1.786;2024-01-16T10:51:43;100290.19;;;18.94;25.45
53246;BME280;39569;51.090;-1.786;2024-01-16T10:54:13;100282.06;;;19.06;25.48
53246;BME280;39569;51.090;-1.786;2024-01-16T10:56:44;100278.00;;;18.92;25.67
53246;BME280;39569;51.090;-1.786;2024-01-16T10:59:18;100277.91;;;17.83;26.18
53246;BME280;39569;51.090;-1.786;2024-01-16T11:01:51;100273.09;;;18.19;26.26
53246;BME280;39569;51.090;-1.786;2024-01-16T11:04:18;100270.25;;;18.14;26.82
53246;BME280;39569;51.090;-1.786;2024-01-16T11:06:46;100260.28;;;18.26;26.76
53246;BME280;39569;51.090;-1.786;2024-01-16T11:09:13;100253.31;;;17.73;26.72
53246;BME280;39569;51.090;-1.786;2024-01-16T11:11:43;100245.56;;;17.76;26.74
53246;BME280;39569;51.090;-1.786;2024-01-16T11:14:11;100234.00;;;19.13;25.47
53246;BME280;39569;51.090;-1.786;2024-01-16T11:16:39;100224.09;;;19.96;24.22
53246;BME280;39569;51.090;-1.786;2024-01-16T11:19:08;100223.59;;;19.83;24.70
53246;BME280;39569;51.090;-1.786;2024-01-16T11:21:36;100227.72;;;20.02;24.52
53246;BME280;39569;51.090;-1.786;2024-01-16T11:24:03;100222.97;;;19.76;24.83
53246;BME280;39569;51.090;-1.786;2024-01-16T11:26:31;100221.66;;;19.78;25.20
53246;BME280;39569;51.090;-1.786;2024-01-16T11:28:59;100212.09;;;19.14;24.98
53246;BME280;39569;51.090;-1.786;2024-01-16T11:31:30;100211.59;;;20.12;24.57
53246;BME280;39569;51.090;-1.786;2024-01-16T11:34:00;100217.06;;;19.62;25.22
53246;BME280;39569;51.090;-1.786;2024-01-16T11:36:58;100201.84;;;19.16;24.94
53246;BME280;39569;51.090;-1.786;2024-01-16T11:39:26;100201.69;;;19.51;24.92
53246;BME280;39569;51.090;-1.786;2024-01-16T11:41:54;100194.31;;;19.18;24.66
53246;BME280;39569;51.090;-1.786;2024-01-16T11:44:36;100191.84;;;19.45;24.51
53246;BME280;39569;51.090;-1.786;2024-01-16T11:47:03;100180.25;;;19.49;25.19
53246;BME280;39569;51.090;-1.786;2024-01-16T11:49:31;100178.09;;;19.35;25.01
53246;BME280;39569;51.090;-1.786;2024-01-16T11:51:58;100174.19;;;19.59;24.37
53246;BME280;39569;51.090;-1.786;2024-01-16T11:54:24;100169.31;;;21.24;23.45
53246;BME280;39569;51.090;-1.786;2024-01-16T11:57:26;100164.16;;;21.54;22.60
53246;BME280;39569;51.090;-1.786;2024-01-16T12:00:04;100153.94;;;21.34;23.09
53246;BME280;39569;51.090;-1.786;2024-01-16T12:02:53;100152.75;;;20.29;23.52
53246;BME280;39569;51.090;-1.786;2024-01-16T12:05:21;100150.22;;;20.06;24.10
53246;BME280;39569;51.090;-1.786;2024-01-16T12:07:49;100142.03;;;20.17;24.09
53246;BME280;39569;51.090;-1.786;2024-01-16T12:10:17;100142.88;;;19.68;25.00
53246;BME280;39569;51.090;-1.786;2024-01-16T12:12:45;100140.13;;;19.46;24.80
53246;BME280;39569;51.090;-1.786;2024-01-16T12:15:16;100133.94;;;19.84;24.05
53246;BME280;39569;51.090;-1.786;2024-01-16T12:17:57;100124.50;;;19.53;24.50
53246;BME280;39569;51.090;-1.786;2024-01-16T12:20:26;100130.94;;;19.64;24.51
53246;BME280;39569;51.090;-1.786;2024-01-16T12:22:54;100130.00;;;19.42;24.63
53246;BME280;39569;51.090;-1.786;2024-01-16T12:25:20;100125.09;;;18.66;25.16
53246;BME280;39569;51.090;-1.786;2024-01-16T12:27:54;100112.81;;;19.03;25.13
53246;BME280;39569;51.090;-1.786;2024-01-16T12:30:23;100110.56;;;18.84;25.14
53246;BME280;39569;51.090;-1.786;2024-01-16T12:32:49;100106.91;;;18.61;25.66
53246;BME280;39569;51.090;-1.786;2024-01-16T12:35:20;100095.75;;;18.86;25.82
53246;BME280;39569;51.090;-1.786;2024-01-16T12:37:59;100092.38;;;18.51;25.92
53246;BME280;39569;51.090;-1.786;2024-01-16T12:40:26;100090.16;;;17.97;26.75
53246;BME280;39569;51.090;-1.786;2024-01-16T12:42:53;100093.25;;;17.65;26.98
53246;BME280;39569;51.090;-1.786;2024-01-16T12:45:21;100089.59;;;18.34;27.16
53246;BME280;39569;51.090;-1.786;2024-01-16T12:47:51;100094.63;;;17.80;27.76
53246;BME280;39569;51.090;-1.786;2024-01-16T12:50:20;100089.03;;;17.05;27.99